createdAt,value
2023-04-02T00:00:10.513Z,1006.87
2023-04-02T00:01:10.441Z,1006.85
2023-04-02T00:02:10.516Z,1006.93
2023-04-02T00:03:10.527Z,1006.89
2023-04-02T00:04:10.460Z,1006.90
2023-04-02T00:05:10.432Z,1006.96
2023-04-02T00:06:10.395Z,1006.99
2023-04-02T00:07:10.443Z,1006.97
2023-04-02T00:08:10.440Z,1006.96
2023-04-02T00:09:10.393Z,1007.02
2023-04-02T00:10:10.348Z,1007.00
2023-04-02T00:11:10.371Z,1007.05
2023-04-02T00:12:10.350Z,1006.99
2023-04-02T00:13:10.330Z,1007.01
2023-04-02T00:14:10.317Z,1007.03
2023-04-02T00:15:10.339Z,1007.04
2023-04-02T00:16:10.503Z,1007.09
2023-04-02T00:17:10.299Z,1007.01
2023-04-02T00:18:10.292Z,1007.04
2023-04-02T00:19:10.276Z,1007.06
2023-04-02T00:20:10.292Z,1007.10
2023-04-02T00:21:10.273Z,1007.12
2023-04-02T00:22:10.237Z,1007.18
2023-04-02T00:23:10.214Z,1007.19
2023-04-02T00:24:10.217Z,1007.19
2023-04-02T00:25:10.199Z,1007.18
2023-04-02T00:26:10.172Z,1007.20
2023-04-02T00:27:10.187Z,1007.19
2023-04-02T00:28:10.180Z,1007.20
2023-04-02T00:29:10.196Z,1007.20
2023-04-02T00:30:10.193Z,1007.22
2023-04-02T00:31:10.140Z,1007.28
2023-04-02T00:32:10.249Z,1007.24
2023-04-02T00:33:10.149Z,1007.25
2023-04-02T00:34:10.116Z,1007.25
2023-04-02T00:35:10.126Z,1007.29
2023-04-02T00:36:10.163Z,1007.31
2023-04-02T00:37:10.072Z,1007.33
2023-04-02T00:38:10.059Z,1007.31
2023-04-02T00:39:10.082Z,1007.33
2023-04-02T00:40:10.054Z,1007.33
2023-04-02T00:41:10.039Z,1007.36
2023-04-02T00:42:10.231Z,1007.38
2023-04-02T00:43:10.026Z,1007.41
2023-04-02T00:44:09.995Z,1007.43
2023-04-02T00:45:10.001Z,1007.38
2023-04-02T00:46:10.034Z,1007.43
2023-04-02T00:47:09.972Z,1007.44
2023-04-02T00:48:10.023Z,1007.46
2023-04-02T00:49:09.945Z,1007.50
2023-04-02T00:50:09.963Z,1007.45
2023-04-02T00:51:09.924Z,1007.50
2023-04-02T00:52:09.894Z,1007.45
2023-04-02T00:53:09.893Z,1007.53
2023-04-02T00:54:09.916Z,1007.49
2023-04-02T00:55:09.860Z,1007.53
2023-04-02T00:56:09.849Z,1007.56
2023-04-02T00:57:09.927Z,1007.62
2023-04-02T00:58:09.846Z,1007.63
2023-04-02T00:59:10.052Z,1007.63
2023-04-02T01:00:09.838Z,1007.59
2023-04-02T01:01:09.832Z,1007.60
2023-04-02T01:02:09.805Z,1007.67
2023-04-02T01:03:09.923Z,1007.64
2023-04-02T01:04:09.777Z,1007.66
2023-04-02T01:05:09.744Z,1007.65
2023-04-02T01:06:09.750Z,1007.64
2023-04-02T01:07:09.754Z,1007.69
2023-04-02T01:08:09.754Z,1007.67
2023-04-02T01:09:09.733Z,1007.71
2023-04-02T01:10:09.716Z,1007.71
2023-04-02T01:11:09.728Z,1007.72
2023-04-02T01:12:09.682Z,1007.72
2023-04-02T01:13:09.697Z,1007.75
2023-04-02T01:14:09.677Z,1007.75
2023-04-02T01:15:09.651Z,1007.80
2023-04-02T01:16:09.667Z,1007.80
2023-04-02T01:17:09.650Z,1007.80
2023-04-02T01:18:09.655Z,1007.84
2023-04-02T01:19:09.625Z,1007.83
2023-04-02T01:20:09.859Z,1007.87
2023-04-02T01:21:09.586Z,1007.88
2023-04-02T01:22:09.604Z,1007.91
2023-04-02T01:23:09.579Z,1007.97
2023-04-02T01:24:09.557Z,1007.94
2023-04-02T01:25:09.549Z,1007.94
2023-04-02T01:26:09.565Z,1007.93
2023-04-02T01:27:09.542Z,1007.95
2023-04-02T01:28:10.454Z,1007.96
2023-04-02T01:29:09.511Z,1007.95
2023-04-02T01:30:09.503Z,1007.98
2023-04-02T01:31:09.502Z,1008.02
2023-04-02T01:32:09.490Z,1008.06
2023-04-02T01:33:09.544Z,1008.09
2023-04-02T01:34:09.449Z,1008.05
2023-04-02T01:35:09.478Z,1008.05
2023-04-02T01:36:09.466Z,1008.09
2023-04-02T01:37:09.430Z,1008.15
2023-04-02T01:38:09.398Z,1008.15
2023-04-02T01:39:09.377Z,1008.13
2023-04-02T01:40:09.383Z,1008.14
2023-04-02T01:41:09.372Z,1008.15
2023-04-02T01:42:09.365Z,1008.18
2023-04-02T01:43:09.352Z,1008.19
2023-04-02T01:44:09.345Z,1008.16
2023-04-02T01:45:09.338Z,1008.20
2023-04-02T01:46:09.376Z,1008.21
2023-04-02T01:47:09.309Z,1008.20
2023-04-02T01:48:09.308Z,1008.28
2023-04-02T01:49:09.412Z,1008.24
2023-04-02T01:50:09.284Z,1008.24
2023-04-02T01:51:09.259Z,1008.27
2023-04-02T01:52:09.271Z,1008.31
2023-04-02T01:53:09.237Z,1008.31
2023-04-02T01:54:09.240Z,1008.33
2023-04-02T01:55:09.244Z,1008.35
2023-04-02T01:56:09.214Z,1008.43
2023-04-02T01:57:09.234Z,1008.44
2023-04-02T01:58:09.169Z,1008.44
2023-04-02T01:59:09.181Z,1008.48
2023-04-02T02:00:09.204Z,1008.50
2023-04-02T02:01:09.195Z,1008.51
2023-04-02T02:02:09.193Z,1008.49
2023-04-02T02:03:09.142Z,1008.53
2023-04-02T02:04:09.122Z,1008.54
2023-04-02T02:05:09.123Z,1008.58
2023-04-02T02:06:09.126Z,1008.63
2023-04-02T02:07:09.080Z,1008.63
2023-04-02T02:08:09.125Z,1008.65
2023-04-02T02:09:09.069Z,1008.74
2023-04-02T02:10:09.086Z,1008.72
2023-04-02T02:11:09.049Z,1008.77
2023-04-02T02:12:09.067Z,1008.78
2023-04-02T02:13:09.009Z,1008.74
2023-04-02T02:14:09.038Z,1008.80
2023-04-02T02:15:09.007Z,1008.82
2023-04-02T02:16:09.020Z,1008.87
2023-04-02T02:17:08.982Z,1008.82
2023-04-02T02:18:08.954Z,1008.81
2023-04-02T02:19:09.004Z,1008.84
2023-04-02T02:20:08.967Z,1008.88
2023-04-02T02:21:15.954Z,1008.88
2023-04-02T02:22:08.941Z,1008.91
2023-04-02T02:23:08.919Z,1008.91
2023-04-02T02:24:08.905Z,1008.93
2023-04-02T02:25:08.907Z,1008.96
2023-04-02T02:26:08.986Z,1008.95
2023-04-02T02:27:08.869Z,1008.98
2023-04-02T02:28:08.901Z,1009.02
2023-04-02T02:29:08.863Z,1008.96
2023-04-02T02:30:08.895Z,1009.05
2023-04-02T02:31:08.879Z,1009.03
2023-04-02T02:32:08.937Z,1009.05
2023-04-02T02:33:08.864Z,1009.08
2023-04-02T02:34:08.809Z,1009.11
2023-04-02T02:35:08.788Z,1009.12
2023-04-02T02:36:08.832Z,1009.13
2023-04-02T02:37:08.781Z,1009.15
2023-04-02T02:38:08.775Z,1009.17
2023-04-02T02:39:08.749Z,1009.19
2023-04-02T02:40:08.748Z,1009.17
2023-04-02T02:41:08.715Z,1009.23
2023-04-02T02:42:08.741Z,1009.26
2023-04-02T02:43:08.708Z,1009.23
2023-04-02T02:44:08.853Z,1009.24
2023-04-02T02:45:08.693Z,1009.30
2023-04-02T02:46:08.751Z,1009.30
2023-04-02T02:47:08.660Z,1009.35
2023-04-02T02:48:08.640Z,1009.31
2023-04-02T02:49:08.653Z,1009.36
2023-04-02T02:50:08.666Z,1009.36
2023-04-02T02:51:08.597Z,1009.40
2023-04-02T02:52:08.745Z,1009.38
2023-04-02T02:53:08.607Z,1009.44
2023-04-02T02:54:08.624Z,1009.48
2023-04-02T02:55:08.575Z,1009.45
2023-04-02T02:56:08.574Z,1009.53
2023-04-02T02:57:08.683Z,1009.50
2023-04-02T02:58:08.553Z,1009.56
2023-04-02T02:59:08.547Z,1009.57
2023-04-02T03:00:08.536Z,1009.56
2023-04-02T03:01:08.555Z,1009.65
2023-04-02T03:02:08.518Z,1009.62
2023-04-02T03:03:08.652Z,1009.71
2023-04-02T03:04:08.801Z,1009.72
2023-04-02T03:05:08.462Z,1009.73
2023-04-02T03:06:08.755Z,1009.78
2023-04-02T03:07:08.439Z,1009.79
2023-04-02T03:08:08.456Z,1009.80
2023-04-02T03:09:08.417Z,1009.83
2023-04-02T03:10:08.423Z,1009.85
2023-04-02T03:11:08.503Z,1009.89
2023-04-02T03:12:08.384Z,1009.86
2023-04-02T03:13:08.385Z,1009.83
2023-04-02T03:14:08.367Z,1009.86
2023-04-02T03:15:08.361Z,1009.92
2023-04-02T03:16:08.436Z,1009.93
2023-04-02T03:17:08.311Z,1009.87
2023-04-02T03:18:08.373Z,1009.97
2023-04-02T03:19:08.309Z,1009.96
2023-04-02T03:20:08.315Z,1009.95
2023-04-02T03:21:08.291Z,1009.96
2023-04-02T03:22:08.284Z,1010.02
2023-04-02T03:23:08.307Z,1010.00
2023-04-02T03:24:08.269Z,1009.97
2023-04-02T03:25:08.247Z,1010.02
2023-04-02T03:26:08.234Z,1010.03
2023-04-02T03:27:08.239Z,1010.06
2023-04-02T03:28:08.219Z,1010.05
2023-04-02T03:29:08.184Z,1010.06
2023-04-02T03:30:08.193Z,1010.07
2023-04-02T03:31:08.195Z,1010.10
2023-04-02T03:32:08.197Z,1010.09
2023-04-02T03:33:08.198Z,1010.08
2023-04-02T03:34:08.157Z,1010.13
2023-04-02T03:35:08.119Z,1010.17
2023-04-02T03:36:08.169Z,1010.18
2023-04-02T03:37:08.121Z,1010.16
2023-04-02T03:38:08.117Z,1010.19
2023-04-02T03:39:08.112Z,1010.23
2023-04-02T03:40:08.108Z,1010.22
2023-04-02T03:41:08.055Z,1010.18
2023-04-02T03:42:08.055Z,1010.22
2023-04-02T03:43:08.221Z,1010.22
2023-04-02T03:44:08.055Z,1010.25
2023-04-02T03:45:08.057Z,1010.29
2023-04-02T03:46:08.135Z,1010.29
2023-04-02T03:47:08.022Z,1010.31
2023-04-02T03:48:08.039Z,1010.33
2023-04-02T03:49:08.036Z,1010.33
2023-04-02T03:50:07.977Z,1010.32
2023-04-02T03:51:07.988Z,1010.35
2023-04-02T03:52:09.000Z,1010.39
2023-04-02T03:53:07.963Z,1010.42
2023-04-02T03:54:07.944Z,1010.42
2023-04-02T03:55:07.924Z,1010.43
2023-04-02T03:56:07.948Z,1010.40
2023-04-02T03:57:07.928Z,1010.48
2023-04-02T03:58:07.899Z,1010.50
2023-04-02T03:59:07.879Z,1010.51
2023-04-02T04:00:07.946Z,1010.55
2023-04-02T04:01:07.862Z,1010.57
2023-04-02T04:02:07.949Z,1010.63
2023-04-02T04:03:07.867Z,1010.63
2023-04-02T04:04:07.918Z,1010.65
2023-04-02T04:05:07.832Z,1010.65
2023-04-02T04:06:07.822Z,1010.70
2023-04-02T04:07:07.813Z,1010.70
2023-04-02T04:08:07.817Z,1010.76
2023-04-02T04:09:07.782Z,1010.77
2023-04-02T04:10:07.780Z,1010.78
2023-04-02T04:11:07.792Z,1010.81
2023-04-02T04:12:07.740Z,1010.83
2023-04-02T04:13:07.746Z,1010.82
2023-04-02T04:14:07.730Z,1010.86
2023-04-02T04:15:07.737Z,1010.88
2023-04-02T04:16:07.845Z,1010.90
2023-04-02T04:17:07.693Z,1010.93
2023-04-02T04:18:07.724Z,1010.95
2023-04-02T04:19:07.711Z,1010.98
2023-04-02T04:20:07.666Z,1010.98
2023-04-02T04:21:07.675Z,1010.99
2023-04-02T04:22:07.667Z,1011.03
2023-04-02T04:23:07.602Z,1011.02
2023-04-02T04:24:07.634Z,1011.04
2023-04-02T04:25:07.584Z,1011.05
2023-04-02T04:26:07.589Z,1011.04
2023-04-02T04:27:07.610Z,1011.08
2023-04-02T04:28:07.556Z,1011.07
2023-04-02T04:29:07.571Z,1011.10
2023-04-02T04:30:07.558Z,1011.10
2023-04-02T04:31:07.554Z,1011.09
2023-04-02T04:32:07.618Z,1011.16
2023-04-02T04:33:07.567Z,1011.18
2023-04-02T04:34:07.531Z,1011.17
2023-04-02T04:35:07.501Z,1011.22
2023-04-02T04:36:07.521Z,1011.21
2023-04-02T04:37:07.464Z,1011.23
2023-04-02T04:38:07.447Z,1011.27
2023-04-02T04:39:07.464Z,1011.22
2023-04-02T04:40:07.455Z,1011.25
2023-04-02T04:41:07.443Z,1011.28
2023-04-02T04:42:07.435Z,1011.32
2023-04-02T04:43:07.431Z,1011.28
2023-04-02T04:44:07.413Z,1011.31
2023-04-02T04:45:07.419Z,1011.32
2023-04-02T04:46:07.445Z,1011.32
2023-04-02T04:47:07.358Z,1011.34
2023-04-02T04:48:07.407Z,1011.38
2023-04-02T04:49:07.346Z,1011.43
2023-04-02T04:50:07.316Z,1011.45
2023-04-02T04:51:07.349Z,1011.45
2023-04-02T04:52:07.330Z,1011.47
2023-04-02T04:53:07.329Z,1011.46
2023-04-02T04:54:07.300Z,1011.49
2023-04-02T04:55:07.380Z,1011.54
2023-04-02T04:56:18.794Z,1011.53
2023-04-02T04:57:08.285Z,1011.60
2023-04-02T04:58:07.255Z,1011.61
2023-04-02T04:59:07.233Z,1011.60
2023-04-02T05:00:07.220Z,1011.60
2023-04-02T05:01:07.270Z,1011.63
2023-04-02T05:02:07.201Z,1011.64
2023-04-02T05:03:07.254Z,1011.66
2023-04-02T05:04:07.170Z,1011.68
2023-04-02T05:05:07.216Z,1011.71
2023-04-02T05:06:07.168Z,1011.72
2023-04-02T05:07:07.156Z,1011.74
2023-04-02T05:08:07.158Z,1011.75
2023-04-02T05:09:07.193Z,1011.81
2023-04-02T05:10:07.120Z,1011.82
2023-04-02T05:11:07.142Z,1011.84
2023-04-02T05:12:07.092Z,1011.86
2023-04-02T05:13:07.102Z,1011.89
2023-04-02T05:14:07.094Z,1011.93
2023-04-02T05:15:07.065Z,1011.92
2023-04-02T05:16:07.098Z,1011.91
2023-04-02T05:17:07.070Z,1011.93
2023-04-02T05:18:07.015Z,1011.93
2023-04-02T05:19:07.046Z,1011.93
2023-04-02T05:20:07.019Z,1011.98
2023-04-02T05:21:07.051Z,1011.99
2023-04-02T05:22:07.002Z,1012.01
2023-04-02T05:23:06.968Z,1012.01
2023-04-02T05:24:06.976Z,1012.01
2023-04-02T05:25:06.982Z,1012.06
2023-04-02T05:26:06.965Z,1012.06
2023-04-02T05:27:06.947Z,1012.10
2023-04-02T05:28:06.920Z,1012.13
2023-04-02T05:29:06.958Z,1012.11
2023-04-02T05:30:06.906Z,1012.14
2023-04-02T05:31:06.948Z,1012.17
2023-04-02T05:32:06.897Z,1012.19
2023-04-02T05:33:06.939Z,1012.20
2023-04-02T05:34:06.868Z,1012.19
2023-04-02T05:35:06.844Z,1012.22
2023-04-02T05:36:06.911Z,1012.26
2023-04-02T05:37:07.300Z,1012.29
2023-04-02T05:38:06.815Z,1012.30
2023-04-02T05:39:06.844Z,1012.29
2023-04-02T05:40:06.826Z,1012.31
2023-04-02T05:41:06.795Z,1012.31
2023-04-02T05:42:06.783Z,1012.31
2023-04-02T05:43:06.765Z,1012.30
2023-04-02T05:44:06.789Z,1012.37
2023-04-02T05:45:06.763Z,1012.37
2023-04-02T05:46:06.749Z,1012.42
2023-04-02T05:47:06.723Z,1012.42
2023-04-02T05:48:06.759Z,1012.38
2023-04-02T05:49:06.727Z,1012.45
2023-04-02T05:50:06.692Z,1012.49
2023-04-02T05:51:06.922Z,1012.53
2023-04-02T05:52:06.659Z,1012.51
2023-04-02T05:53:06.677Z,1012.56
2023-04-02T05:54:06.646Z,1012.57
2023-04-02T05:55:06.714Z,1012.58
2023-04-02T05:56:06.628Z,1012.59
2023-04-02T05:57:06.653Z,1012.58
2023-04-02T05:58:31.845Z,1012.60
2023-04-02T05:59:07.644Z,1012.63
2023-04-02T06:00:06.611Z,1012.64
2023-04-02T06:01:06.591Z,1012.62
2023-04-02T06:02:06.589Z,1012.65
2023-04-02T06:03:06.635Z,1012.65
2023-04-02T06:04:06.633Z,1012.69
2023-04-02T06:05:06.572Z,1012.68
2023-04-02T06:06:06.552Z,1012.73
2023-04-02T06:07:06.514Z,1012.76
2023-04-02T06:08:06.515Z,1012.75
2023-04-02T06:09:06.501Z,1012.75
2023-04-02T06:10:06.510Z,1012.77
2023-04-02T06:11:06.497Z,1012.74
2023-04-02T06:12:06.477Z,1012.85
2023-04-02T06:13:06.503Z,1012.74
2023-04-02T06:14:06.444Z,1012.83
2023-04-02T06:15:06.445Z,1012.87
2023-04-02T06:16:06.417Z,1012.79
2023-04-02T06:17:06.405Z,1012.86
2023-04-02T06:18:06.460Z,1012.89
2023-04-02T06:19:06.375Z,1012.90
2023-04-02T06:20:06.381Z,1012.95
2023-04-02T06:21:06.399Z,1012.93
2023-04-02T06:22:06.357Z,1012.97
2023-04-02T06:23:06.329Z,1012.96
2023-04-02T06:24:06.343Z,1012.91
2023-04-02T06:25:06.333Z,1012.98
2023-04-02T06:26:06.282Z,1013.02
2023-04-02T06:27:06.283Z,1012.98
2023-04-02T06:28:06.290Z,1013.02
2023-04-02T06:29:06.316Z,1013.05
2023-04-02T06:30:06.271Z,1013.01
2023-04-02T06:31:06.292Z,1013.11
2023-04-02T06:32:06.251Z,1013.15
2023-04-02T06:33:06.369Z,1013.14
2023-04-02T06:34:06.234Z,1013.15
2023-04-02T06:35:06.288Z,1013.15
2023-04-02T06:36:06.262Z,1013.17
2023-04-02T06:37:06.197Z,1013.21
2023-04-02T06:38:06.195Z,1013.24
2023-04-02T06:39:06.174Z,1013.24
2023-04-02T06:40:06.174Z,1013.23
2023-04-02T06:41:06.193Z,1013.31
2023-04-02T06:42:06.182Z,1013.31
2023-04-02T06:43:06.131Z,1013.32
2023-04-02T06:44:06.118Z,1013.26
2023-04-02T06:45:06.096Z,1013.36
2023-04-02T06:46:06.167Z,1013.39
2023-04-02T06:47:06.107Z,1013.36
2023-04-02T06:48:06.120Z,1013.35
2023-04-02T06:49:06.060Z,1013.39
2023-04-02T06:50:06.107Z,1013.47
2023-04-02T06:51:06.092Z,1013.45
2023-04-02T06:52:06.103Z,1013.46
2023-04-02T06:53:06.023Z,1013.46
2023-04-02T06:54:06.018Z,1013.49
2023-04-02T06:55:06.137Z,1013.47
2023-04-02T06:56:06.032Z,1013.54
2023-04-02T06:57:06.050Z,1013.56
2023-04-02T06:58:05.998Z,1013.63
2023-04-02T06:59:05.970Z,1013.65
2023-04-02T07:00:05.965Z,1013.65
2023-04-02T07:01:06.005Z,1013.67
2023-04-02T07:02:05.952Z,1013.67
2023-04-02T07:03:05.969Z,1013.66
2023-04-02T07:04:05.912Z,1013.66
2023-04-02T07:05:06.066Z,1013.73
2023-04-02T07:06:05.948Z,1013.75
2023-04-02T07:07:05.868Z,1013.69
2023-04-02T07:08:05.858Z,1013.72
2023-04-02T07:09:05.867Z,1013.73
2023-04-02T07:10:05.860Z,1013.73
2023-04-02T07:11:05.832Z,1013.78
2023-04-02T07:12:05.826Z,1013.72
2023-04-02T07:13:05.821Z,1013.76
2023-04-02T07:14:05.889Z,1013.78
2023-04-02T07:15:05.782Z,1013.81
2023-04-02T07:16:05.817Z,1013.81
2023-04-02T07:17:06.030Z,1013.83
2023-04-02T07:18:05.801Z,1013.83
2023-04-02T07:19:05.734Z,1013.78
2023-04-02T07:20:05.732Z,1013.88
2023-04-02T07:21:05.721Z,1013.87
2023-04-02T07:22:05.754Z,1013.82
2023-04-02T07:23:05.702Z,1013.90
2023-04-02T07:24:05.704Z,1013.90
2023-04-02T07:25:05.702Z,1013.96
2023-04-02T07:26:05.676Z,1013.95
2023-04-02T07:27:05.669Z,1013.93
2023-04-02T07:28:05.627Z,1013.93
2023-04-02T07:29:05.633Z,1013.96
2023-04-02T07:30:05.626Z,1013.92
2023-04-02T07:31:05.666Z,1013.93
2023-04-02T07:32:05.608Z,1013.93
2023-04-02T07:33:05.668Z,1013.96
2023-04-02T07:34:05.588Z,1013.96
2023-04-02T07:35:05.580Z,1013.97
2023-04-02T07:36:05.580Z,1013.99
2023-04-02T07:37:05.549Z,1014.01
2023-04-02T07:38:05.587Z,1014.06
2023-04-02T07:39:05.501Z,1014.02
2023-04-02T07:40:07.749Z,1014.05
2023-04-02T07:41:05.485Z,1014.08
2023-04-02T07:42:05.479Z,1014.12
2023-04-02T07:43:05.486Z,1014.06
2023-04-02T07:44:05.479Z,1014.14
2023-04-02T07:45:06.195Z,1014.13
2023-04-02T07:46:05.448Z,1014.13
2023-04-02T07:47:05.544Z,1014.15
2023-04-02T07:48:05.469Z,1014.25
2023-04-02T07:49:05.424Z,1014.16
2023-04-02T07:50:05.427Z,1014.20
2023-04-02T07:51:05.418Z,1014.15
2023-04-02T07:52:05.405Z,1014.20
2023-04-02T07:53:05.406Z,1014.20
2023-04-02T07:54:05.352Z,1014.21
2023-04-02T07:55:05.365Z,1014.27
2023-04-02T07:56:05.355Z,1014.28
2023-04-02T07:57:05.374Z,1014.28
2023-04-02T07:58:05.320Z,1014.32
2023-04-02T07:59:05.332Z,1014.35
2023-04-02T08:00:05.280Z,1014.28
2023-04-02T08:01:05.299Z,1014.31
2023-04-02T08:02:05.316Z,1014.36
2023-04-02T08:03:05.419Z,1014.36
2023-04-02T08:04:05.338Z,1014.37
2023-04-02T08:05:05.284Z,1014.42
2023-04-02T08:06:05.237Z,1014.40
2023-04-02T08:07:05.236Z,1014.43
2023-04-02T08:08:05.190Z,1014.34
2023-04-02T08:09:05.263Z,1014.45
2023-04-02T08:10:05.169Z,1014.41
2023-04-02T08:11:05.210Z,1014.39
2023-04-02T08:12:05.161Z,1014.36
2023-04-02T08:13:05.139Z,1014.47
2023-04-02T08:14:05.145Z,1014.41
2023-04-02T08:15:05.145Z,1014.45
2023-04-02T08:16:05.122Z,1014.44
2023-04-02T08:17:05.141Z,1014.45
2023-04-02T08:18:05.176Z,1014.47
2023-04-02T08:19:05.117Z,1014.51
2023-04-02T08:20:05.071Z,1014.49
2023-04-02T08:21:12.688Z,1014.50
2023-04-02T08:22:05.054Z,1014.54
2023-04-02T08:23:05.058Z,1014.53
2023-04-02T08:24:05.035Z,1014.56
2023-04-02T08:25:05.022Z,1014.54
2023-04-02T08:26:05.036Z,1014.57
2023-04-02T08:27:05.030Z,1014.57
2023-04-02T08:28:05.012Z,1014.63
2023-04-02T08:29:04.984Z,1014.63
2023-04-02T08:30:04.987Z,1014.66
2023-04-02T08:31:05.108Z,1014.65
2023-04-02T08:32:04.973Z,1014.74
2023-04-02T08:33:04.961Z,1014.70
2023-04-02T08:34:04.932Z,1014.63
2023-04-02T08:35:04.925Z,1014.67
2023-04-02T08:36:05.030Z,1014.66
2023-04-02T08:37:04.924Z,1014.72
2023-04-02T08:38:04.940Z,1014.76
2023-04-02T08:39:04.887Z,1014.80
2023-04-02T08:40:04.900Z,1014.86
2023-04-02T08:41:04.860Z,1014.80
2023-04-02T08:42:04.842Z,1014.90
2023-04-02T08:43:04.852Z,1014.86
2023-04-02T08:44:04.850Z,1014.99
2023-04-02T08:45:13.741Z,1015.00
2023-04-02T08:46:05.845Z,1014.94
2023-04-02T08:47:04.839Z,1014.95
2023-04-02T08:48:04.903Z,1015.02
2023-04-02T08:49:04.779Z,1015.06
2023-04-02T08:50:04.774Z,1015.06
2023-04-02T08:51:04.773Z,1015.05
2023-04-02T08:52:04.759Z,1015.11
2023-04-02T08:53:04.737Z,1015.10
2023-04-02T08:54:04.761Z,1015.16
2023-04-02T08:55:04.734Z,1015.12
2023-04-02T08:56:04.705Z,1015.13
2023-04-02T08:57:04.730Z,1015.16
2023-04-02T08:58:04.690Z,1015.17
2023-04-02T08:59:04.655Z,1015.21
2023-04-02T09:00:04.652Z,1015.20
2023-04-02T09:01:04.662Z,1015.22
2023-04-02T09:02:04.685Z,1015.26
2023-04-02T09:03:04.726Z,1015.29
2023-04-02T09:04:04.616Z,1015.32
2023-04-02T09:05:04.680Z,1015.30
2023-04-02T09:06:04.610Z,1015.34
2023-04-02T09:07:04.579Z,1015.36
2023-04-02T09:08:04.562Z,1015.34
2023-04-02T09:09:04.572Z,1015.39
2023-04-02T09:10:04.542Z,1015.43
2023-04-02T09:11:04.525Z,1015.39
2023-04-02T09:12:04.645Z,1015.47
2023-04-02T09:13:04.517Z,1015.45
2023-04-02T09:14:04.548Z,1015.52
2023-04-02T09:15:04.523Z,1015.51
2023-04-02T09:16:04.535Z,1015.52
2023-04-02T09:17:04.493Z,1015.56
2023-04-02T09:18:04.501Z,1015.55
2023-04-02T09:19:04.452Z,1015.58
2023-04-02T09:20:04.435Z,1015.56
2023-04-02T09:21:04.423Z,1015.59
2023-04-02T09:22:04.436Z,1015.56
2023-04-02T09:23:04.406Z,1015.55
2023-04-02T09:24:05.226Z,1015.60
2023-04-02T09:25:04.389Z,1015.54
2023-04-02T09:26:04.985Z,1015.65
2023-04-02T09:27:04.364Z,1015.61
2023-04-02T09:28:04.405Z,1015.59
2023-04-02T09:29:04.339Z,1015.59
2023-04-02T09:30:04.339Z,1015.61
2023-04-02T09:31:06.631Z,1015.65
2023-04-02T09:32:04.506Z,1015.63
2023-04-02T09:33:04.376Z,1015.71
2023-04-02T09:34:04.294Z,1015.72
2023-04-02T09:35:12.261Z,1015.72
2023-04-02T09:36:05.363Z,1015.70
2023-04-02T09:37:04.264Z,1015.78
2023-04-02T09:38:04.286Z,1015.76
2023-04-02T09:39:04.245Z,1015.87
2023-04-02T09:40:04.245Z,1015.90
2023-04-02T09:41:04.221Z,1015.86
2023-04-02T09:42:05.717Z,1015.87
2023-04-02T09:43:04.187Z,1015.89
2023-04-02T09:44:04.208Z,1015.91
2023-04-02T09:45:04.207Z,1015.94
2023-04-02T09:46:04.197Z,1015.96
2023-04-02T09:47:04.265Z,1015.99
2023-04-02T09:48:04.252Z,1015.99
2023-04-02T09:49:04.172Z,1015.97
2023-04-02T09:50:04.136Z,1016.04
2023-04-02T09:51:04.146Z,1015.99
2023-04-02T09:52:04.088Z,1016.00
2023-04-02T09:53:04.085Z,1016.03
2023-04-02T09:54:04.120Z,1016.02
2023-04-02T09:55:04.067Z,1016.04
2023-04-02T09:56:04.042Z,1016.04
2023-04-02T09:57:04.106Z,1016.06
2023-04-02T09:58:04.024Z,1016.04
2023-04-02T09:59:04.117Z,1016.10
2023-04-02T10:00:04.054Z,1016.07
2023-04-02T10:01:04.044Z,1016.03
2023-04-02T10:02:04.011Z,1016.02
2023-04-02T10:03:04.024Z,1016.05
2023-04-02T10:04:04.023Z,1016.01
2023-04-02T10:05:03.974Z,1016.07
2023-04-02T10:06:03.971Z,1016.07
2023-04-02T10:07:03.967Z,1016.09
2023-04-02T10:08:03.961Z,1016.05
2023-04-02T10:09:03.894Z,1016.12
2023-04-02T10:10:03.932Z,1016.15
2023-04-02T10:11:03.905Z,1016.18
2023-04-02T10:12:03.918Z,1016.21
2023-04-02T10:13:03.880Z,1016.21
2023-04-02T10:14:03.903Z,1016.16
2023-04-02T10:15:03.854Z,1016.26
2023-04-02T10:16:03.908Z,1016.38
2023-04-02T10:17:03.913Z,1016.30
2023-04-02T10:18:03.846Z,1016.29
2023-04-02T10:19:03.847Z,1016.34
2023-04-02T10:20:03.801Z,1016.35
2023-04-02T10:21:03.800Z,1016.33
2023-04-02T10:22:03.815Z,1016.37
2023-04-02T10:23:05.425Z,1016.34
2023-04-02T10:24:03.759Z,1016.36
2023-04-02T10:25:03.722Z,1016.37
2023-04-02T10:26:03.795Z,1016.38
2023-04-02T10:27:03.706Z,1016.42
2023-04-02T10:28:03.719Z,1016.33
2023-04-02T10:29:05.594Z,1016.44
2023-04-02T10:30:03.721Z,1016.44
2023-04-02T10:31:03.718Z,1016.42
2023-04-02T10:32:03.714Z,1016.46
2023-04-02T10:33:03.725Z,1016.41
2023-04-02T10:34:03.642Z,1016.42
2023-04-02T10:35:03.697Z,1016.38
2023-04-02T10:36:03.680Z,1016.45
2023-04-02T10:37:03.648Z,1016.40
2023-04-02T10:38:03.648Z,1016.44
2023-04-02T10:39:03.611Z,1016.45
2023-04-02T10:40:03.608Z,1016.45
2023-04-02T10:41:03.609Z,1016.48
2023-04-02T10:42:03.575Z,1016.49
2023-04-02T10:43:03.592Z,1016.54
2023-04-02T10:44:16.650Z,1016.57
2023-04-02T10:45:04.547Z,1016.58
2023-04-02T10:46:03.555Z,1016.59
2023-04-02T10:47:03.505Z,1016.59
2023-04-02T10:48:03.565Z,1016.57
2023-04-02T10:49:03.532Z,1016.62
2023-04-02T10:50:03.482Z,1016.68
2023-04-02T10:51:03.474Z,1016.65
2023-04-02T10:52:03.473Z,1016.67
2023-04-02T10:53:03.450Z,1016.70
2023-04-02T10:54:03.461Z,1016.71
2023-04-02T10:55:03.462Z,1016.69
2023-04-02T10:56:03.474Z,1016.71
2023-04-02T10:57:03.427Z,1016.74
2023-04-02T10:58:03.401Z,1016.71
2023-04-02T10:59:03.396Z,1016.77
2023-04-02T11:00:03.400Z,1016.71
2023-04-02T11:01:03.356Z,1016.74
2023-04-02T11:02:03.388Z,1016.71
2023-04-02T11:03:03.384Z,1016.80
2023-04-02T11:04:03.337Z,1016.78
2023-04-02T11:05:03.351Z,1016.83
2023-04-02T11:06:03.290Z,1016.88
2023-04-02T11:07:13.232Z,1016.85
2023-04-02T11:08:04.312Z,1016.85
2023-04-02T11:09:03.289Z,1016.87
2023-04-02T11:10:03.286Z,1016.82
2023-04-02T11:11:04.649Z,1016.90
2023-04-02T11:12:03.236Z,1016.89
2023-04-02T11:13:03.230Z,1016.91
2023-04-02T11:14:03.221Z,1016.98
2023-04-02T11:15:03.223Z,1017.02
2023-04-02T11:16:03.248Z,1016.98
2023-04-02T11:17:03.254Z,1017.03
2023-04-02T11:18:03.238Z,1017.03
2023-04-02T11:19:03.175Z,1017.04
2023-04-02T11:20:03.190Z,1017.17
2023-04-02T11:21:10.154Z,1017.17
2023-04-02T11:22:10.146Z,1017.15
2023-04-02T11:23:03.093Z,1017.24
2023-04-02T11:24:03.097Z,1017.21
2023-04-02T11:25:03.122Z,1017.22
2023-04-02T11:26:03.121Z,1017.23
2023-04-02T11:27:03.101Z,1017.26
2023-04-02T11:28:03.079Z,1017.24
2023-04-02T11:29:03.087Z,1017.29
2023-04-02T11:30:03.076Z,1017.27
2023-04-02T11:31:03.092Z,1017.30
2023-04-02T11:32:03.053Z,1017.31
2023-04-02T11:33:03.024Z,1017.32
2023-04-02T11:34:03.006Z,1017.29
2023-04-02T11:35:06.555Z,1017.27
2023-04-02T11:36:02.992Z,1017.29
2023-04-02T11:37:02.996Z,1017.32
2023-04-02T11:38:02.964Z,1017.33
2023-04-02T11:39:14.523Z,1017.34
2023-04-02T11:40:03.967Z,1017.33
2023-04-02T11:41:03.027Z,1017.38
2023-04-02T11:42:02.927Z,1017.33
2023-04-02T11:43:02.916Z,1017.38
2023-04-02T11:44:02.907Z,1017.36
2023-04-02T11:45:02.898Z,1017.37
2023-04-02T11:46:02.904Z,1017.38
2023-04-02T11:47:02.944Z,1017.40
2023-04-02T11:48:02.954Z,1017.39
2023-04-02T11:49:02.924Z,1017.40
2023-04-02T11:50:02.928Z,1017.46
2023-04-02T11:51:02.822Z,1017.46
2023-04-02T11:52:11.507Z,1017.45
2023-04-02T11:53:03.847Z,1017.52
2023-04-02T11:54:02.804Z,1017.51
2023-04-02T11:55:02.797Z,1017.52
2023-04-02T11:56:02.819Z,1017.55
2023-04-02T11:57:02.825Z,1017.57
2023-04-02T11:58:02.765Z,1017.55
2023-04-02T11:59:02.793Z,1017.56
2023-04-02T12:00:02.747Z,1017.56
2023-04-02T12:01:02.814Z,1017.50
2023-04-02T12:02:02.894Z,1017.57
2023-04-02T12:03:02.806Z,1017.56
2023-04-02T12:04:02.717Z,1017.57
2023-04-02T12:05:02.761Z,1017.59